Time;durP1;ratioP1;P1;durP2;ratioP2;P2;SDS_P1;SDS_P2;PMS_P1;PMS_P2;Temp;Humidity;BMP_temperature;BMP_pressure;BME280_temperature;BME280_humidity;BME280_pressure;Samples;Min_cycle;Max_cycle;Signal;HPM_P1;HPM_P2
2022/07/10 00:00:36;;;;;;;10.35;2.38;;;13.60;99.90;;;;;;4989163;28;20081;-93
2022/07/10 00:03:03;;;;;;;7.38;2.13;;;13.60;99.90;;;;;;4985010;28;20107;-93
2022/07/10 00:05:30;;;;;;;6.63;1.80;;;13.50;99.90;;;;;;5020622;28;20041;-93
2022/07/10 00:07:57;;;;;;;10.55;2.10;;;13.50;99.90;;;;;;4956855;28;20486;-92
2022/07/10 00:10:24;;;;;;;9.35;2.13;;;13.50;99.90;;;;;;5005201;28;20069;-93
2022/07/10 00:12:53;;;;;;;10.43;1.77;;;13.40;99.90;;;;;;5007516;28;20529;-92
2022/07/10 00:15:23;;;;;;;8.95;1.77;;;13.30;99.90;;;;;;5003208;28;20494;-93
2022/07/10 00:17:49;;;;;;;6.28;1.63;;;13.20;99.90;;;;;;5001488;28;20412;-93
2022/07/10 00:20:16;;;;;;;9.00;2.00;;;13.20;99.90;;;;;;4971741;28;20288;-93
2022/07/10 00:22:43;;;;;;;9.98;2.00;;;13.30;99.90;;;;;;5011458;28;20056;-92
2022/07/10 00:25:12;;;;;;;9.10;2.25;;;13.30;99.90;;;;;;5019505;28;20181;-93
2022/07/10 00:27:39;;;;;;;10.35;2.47;;;13.20;99.90;;;;;;4979567;28;20128;-93
2022/07/10 00:30:06;;;;;;;11.32;2.05;;;13.30;99.90;;;;;;5012724;28;20045;-94
2022/07/10 00:32:33;;;;;;;5.72;1.77;;;13.30;99.90;;;;;;5003947;28;20042;-92
2022/07/10 00:35:01;;;;;;;8.63;1.77;;;13.30;99.90;;;;;;4988274;28;20125;-92
2022/07/10 00:37:31;;;;;;;7.25;1.70;;;13.40;99.90;;;;;;5020525;28;20046;-93
2022/07/10 00:39:57;;;;;;;11.88;1.90;;;13.30;99.90;;;;;;4989191;28;20060;-93
2022/07/10 00:42:23;;;;;;;6.70;1.90;;;13.20;99.90;;;;;;5004567;28;20046;-93
2022/07/10 00:44:49;;;;;;;8.93;2.30;;;13.20;99.90;;;;;;4984363;28;20119;-94
2022/07/10 00:47:17;;;;;;;9.07;2.22;;;13.20;99.90;;;;;;5004952;28;20049;-92
2022/07/10 00:52:38;;;;;;;6.40;1.60;;;13.20;99.90;;;;;;5017558;28;20142;-93
2022/07/10 00:55:15;;;;;;;9.40;1.98;;;13.30;99.90;;;;;;5000969;28;20042;-93
2022/07/10 00:58:16;;;;;;;6.07;1.65;;;13.30;99.90;;;;;;5007407;28;20080;-93
2022/07/10 01:00:51;;;;;;;10.32;1.73;;;13.30;99.90;;;;;;5006177;28;20394;-93
2022/07/10 01:03:18;;;;;;;9.32;1.88;;;13.30;99.90;;;;;;4999547;28;20041;-93
2022/07/10 01:05:44;;;;;;;8.82;2.63;;;13.40;99.90;;;;;;4989135;28;20042;-93
2022/07/10 01:08:13;;;;;;;10.23;1.80;;;13.40;99.90;;;;;;4982669;28;20050;-93
2022/07/10 01:10:40;;;;;;;8.23;2.05;;;13.40;99.90;;;;;;4991089;28;20133;-92
2022/07/10 01:13:34;;;;;;;16.20;2.30;;;13.40;99.90;;;;;;5007690;28;20045;-93
2022/07/10 01:16:04;;;;;;;5.00;1.80;;;13.30;99.90;;;;;;5011070;28;20037;-92
2022/07/10 01:18:35;;;;;;;6.40;1.67;;;13.30;99.90;;;;;;5024473;28;20053;-93
2022/07/10 01:21:26;;;;;;;6.57;2.22;;;13.30;99.90;;;;;;5008805;28;20057;-93
2022/07/10 01:23:56;;;;;;;8.50;1.90;;;13.20;99.90;;;;;;4978916;28;20433;-92
2022/07/10 01:26:24;;;;;;;13.70;2.72;;;13.20;99.90;;;;;;4993094;28;20180;-92
2022/07/10 01:28:52;;;;;;;10.95;2.35;;;13.20;99.90;;;;;;5009737;28;20038;-92
2022/07/10 01:31:20;;;;;;;9.70;1.92;;;13.20;99.90;;;;;;4991823;28;20052;-93
2022/07/10 01:33:47;;;;;;;10.57;2.00;;;13.30;99.90;;;;;;5025954;28;20041;-93
2022/07/10 01:36:14;;;;;;;10.55;2.38;;;13.40;99.90;;;;;;5007090;28;20041;-92
2022/07/10 01:38:58;;;;;;;8.15;2.25;;;13.40;99.90;;;;;;4970837;28;20497;-92
2022/07/10 01:41:25;;;;;;;9.40;2.08;;;13.40;99.90;;;;;;4993170;28;20060;-93
2022/07/10 01:43:52;;;;;;;13.90;2.13;;;13.40;99.90;;;;;;4993445;28;20052;-93
2022/07/10 01:46:20;;;;;;;11.35;1.98;;;13.30;99.90;;;;;;4991800;28;20050;-92
2022/07/10 01:48:48;;;;;;;7.20;2.00;;;13.20;99.90;;;;;;5008120;28;20570;-93
2022/07/10 01:51:27;;;;;;;12.27;2.58;;;13.20;99.90;;;;;;4991995;28;20046;-93
2022/07/10 01:54:00;;;;;;;10.50;1.98;;;13.10;99.90;;;;;;4995171;28;20046;-91
2022/07/10 01:56:26;;;;;;;7.47;1.98;;;13.10;99.90;;;;;;4977678;28;20042;-92
2022/07/10 01:58:56;;;;;;;9.60;1.83;;;13.10;99.90;;;;;;4970085;28;20050;-92
2022/07/10 02:01:29;;;;;;;13.82;2.30;;;13.10;99.90;;;;;;4974464;28;20046;-92
2022/07/10 02:07:17;;;;;;;8.05;1.98;;;13.00;99.90;;;;;;4993237;28;20598;-92
2022/07/10 02:09:45;;;;;;;12.25;2.83;;;12.90;99.90;;;;;;5003621;28;20073;-92
2022/07/10 02:12:20;;;;;;;8.10;1.88;;;12.90;99.90;;;;;;4976433;28;20054;-92
2022/07/10 02:14:50;;;;;;;9.63;2.15;;;12.90;99.90;;;;;;5024071;28;20076;-91
2022/07/10 02:17:23;;;;;;;12.30;2.03;;;12.80;99.90;;;;;;5026106;28;20049;-91
2022/07/10 02:19:56;;;;;;;8.93;2.60;;;12.70;99.90;;;;;;4981167;28;20064;-92
2022/07/10 02:22:50;;;;;;;11.88;2.50;;;12.70;99.90;;;;;;5021151;28;20042;-92
2022/07/10 02:25:20;;;;;;;11.23;2.35;;;12.70;99.90;;;;;;5041080;28;20060;-92
2022/07/10 02:27:54;;;;;;;12.52;2.70;;;12.60;99.90;;;;;;4992261;28;20610;-92
2022/07/10 02:30:23;;;;;;;12.30;2.50;;;12.60;99.90;;;;;;5006149;28;20042;-91
2022/07/10 02:32:55;;;;;;;6.93;2.20;;;12.60;99.90;;;;;;5008081;28;20077;-92
2022/07/10 02:35:31;;;;;;;10.48;2.15;;;12.50;99.90;;;;;;5029143;28;20049;-92
2022/07/10 02:37:57;;;;;;;9.48;1.98;;;12.50;99.90;;;;;;5003179;28;20042;-92
2022/07/10 02:40:57;;;;;;;9.35;2.40;;;12.50;99.90;;;;;;5016752;28;20045;-92
2022/07/10 02:43:27;;;;;;;10.40;2.05;;;12.50;99.90;;;;;;4992109;28;20052;-92
2022/07/10 02:45:56;;;;;;;13.10;2.60;;;12.50;99.90;;;;;;4994908;28;20050;-92
2022/07/10 02:48:31;;;;;;;7.40;1.80;;;12.40;99.90;;;;;;4983156;28;20086;-92
2022/07/10 02:51:00;;;;;;;8.32;2.58;;;12.50;99.90;;;;;;4990285;28;20038;-91
2022/07/10 02:53:30;;;;;;;10.27;2.50;;;12.50;99.90;;;;;;5013310;28;20039;-92
2022/07/10 02:56:02;;;;;;;9.70;2.28;;;12.40;99.90;;;;;;5026505;28;20030;-92
2022/07/10 02:58:28;;;;;;;9.63;2.72;;;12.40;99.90;;;;;;4986551;28;20068;-91
2022/07/10 03:00:55;;;;;;;12.20;2.05;;;12.30;99.90;;;;;;5025067;28;20046;-91
2022/07/10 03:03:24;;;;;;;9.38;2.15;;;12.30;99.90;;;;;;5021613;28;20114;-92
2022/07/10 03:06:02;;;;;;;5.97;1.80;;;12.30;99.90;;;;;;5013424;28;20045;-92
2022/07/10 03:08:31;;;;;;;11.85;2.30;;;12.30;99.90;;;;;;5043556;28;20042;-91
2022/07/10 03:11:09;;;;;;;10.93;2.00;;;12.30;99.90;;;;;;4990821;28;20045;-92
2022/07/10 03:13:36;;;;;;;10.43;2.75;;;12.30;99.90;;;;;;4993507;28;20056;-93
2022/07/10 03:16:21;;;;;;;9.48;2.38;;;12.30;99.90;;;;;;5020594;28;20038;-93
2022/07/10 03:18:56;;;;;;;9.43;2.25;;;12.30;99.90;;;;;;5010092;28;20058;-93
2022/07/10 03:21:26;;;;;;;11.88;2.00;;;12.30;99.90;;;;;;5025475;28;20549;-92
2022/07/10 03:23:57;;;;;;;10.63;2.22;;;12.40;99.90;;;;;;5006192;28;20183;-92
2022/07/10 03:26:36;;;;;;;10.50;2.53;;;12.30;99.90;;;;;;5015391;28;20042;-92
2022/07/10 03:29:08;;;;;;;10.65;2.13;;;12.30;99.90;;;;;;5006854;28;20497;-92
2022/07/10 03:31:50;;;;;;;12.23;2.25;;;12.30;99.90;;;;;;4988361;28;20120;-92
2022/07/10 03:34:39;;;;;;;8.52;1.70;;;12.20;99.90;;;;;;5023006;28;20041;-92
2022/07/10 03:37:27;;;;;;;9.68;1.80;;;12.30;99.90;;;;;;5024652;28;20043;-92
2022/07/10 03:39:54;;;;;;;10.77;2.00;;;12.40;99.90;;;;;;5011038;28;20046;-92
2022/07/10 03:42:26;;;;;;;7.10;2.15;;;12.40;99.90;;;;;;4998504;28;20161;-91
2022/07/10 03:44:53;;;;;;;11.10;2.10;;;12.50;99.90;;;;;;4991738;28;20046;-91
2022/07/10 03:47:26;;;;;;;9.82;2.20;;;12.60;99.90;;;;;;4979678;28;20073;-91
2022/07/10 03:49:52;;;;;;;9.07;1.83;;;12.60;99.90;;;;;;5000019;28;20041;-92
2022/07/10 03:52:31;;;;;;;10.13;2.35;;;12.70;99.90;;;;;;4983237;28;20041;-92
2022/07/10 03:55:01;;;;;;;11.55;2.13;;;12.80;99.90;;;;;;5010889;28;20042;-92
2022/07/10 04:05:07;;;;;;;8.68;1.67;;;13.00;99.90;;;;;;4995223;28;20125;-92
2022/07/10 04:08:31;;;;;;;6.68;1.55;;;13.10;99.90;;;;;;5009394;28;20153;-92
2022/07/10 04:11:01;;;;;;;10.13;2.05;;;13.10;99.90;;;;;;4988591;28;20041;-93
2022/07/10 04:13:33;;;;;;;8.70;1.83;;;13.20;99.90;;;;;;4997732;28;20111;-92
2022/07/10 04:16:12;;;;;;;7.00;1.63;;;13.20;99.90;;;;;;5003338;28;20038;-92
2022/07/10 04:18:43;;;;;;;11.50;2.35;;;13.20;99.90;;;;;;4980650;28;20129;-92
2022/07/10 04:21:21;;;;;;;10.77;1.98;;;13.30;99.90;;;;;;5003283;28;20049;-93
2022/07/10 04:24:06;;;;;;;6.47;1.65;;;13.40;99.90;;;;;;5005346;28;20495;-91
2022/07/10 04:26:35;;;;;;;9.63;1.77;;;13.40;99.90;;;;;;5003808;28;20045;-91
2022/07/10 04:29:04;;;;;;;;;;;13.40;99.90;;;;;;5011588;28;20073;-91
2022/07/10 04:31:33;;;;;;;7.10;2.08;;;13.50;99.90;;;;;;5021802;28;19980;-93
2022/07/10 04:33:59;;;;;;;6.07;1.88;;;13.40;99.90;;;;;;5004096;28;20065;-92
2022/07/10 04:36:25;;;;;;;6.75;1.30;;;13.50;99.90;;;;;;4991164;28;20057;-92
2022/07/10 04:38:52;;;;;;;9.75;1.83;;;13.50;99.90;;;;;;5004261;28;20041;-91
2022/07/10 04:41:18;;;;;;;8.93;1.60;;;13.60;99.90;;;;;;4986584;28;20050;-91
2022/07/10 04:43:56;;;;;;;6.75;1.40;;;13.60;99.90;;;;;;5001717;28;20049;-93
2022/07/10 04:46:26;;;;;;;7.82;1.73;;;13.70;99.90;;;;;;4971089;28;20053;-92
2022/07/10 04:48:53;;;;;;;9.05;1.90;;;13.70;99.90;;;;;;4971417;28;20452;-91
2022/07/10 04:51:23;;;;;;;6.55;1.35;;;13.80;99.90;;;;;;4984057;28;20073;-91
2022/07/10 04:53:49;;;;;;;9.18;1.85;;;13.80;99.90;;;;;;4971250;28;20046;-92
2022/07/10 04:56:19;;;;;;;8.98;1.98;;;13.90;99.90;;;;;;5004715;28;20537;-92
2022/07/10 04:58:48;;;;;;;9.13;1.65;;;13.90;99.90;;;;;;4998528;28;20072;-93
2022/07/10 05:01:35;;;;;;;7.43;1.70;;;14.00;99.90;;;;;;5010984;28;20045;-92
2022/07/10 05:04:13;;;;;;;8.43;1.42;;;14.00;99.90;;;;;;5029175;28;20053;-93
2022/07/10 05:06:50;;;;;;;8.82;1.55;;;14.00;99.90;;;;;;5017114;28;20505;-93
2022/07/10 05:09:22;;;;;;;7.95;1.33;;;14.10;99.90;;;;;;4987763;28;20061;-92
2022/07/10 05:12:03;;;;;;;6.32;1.95;;;14.10;99.90;;;;;;4985381;28;20078;-92
2022/07/10 05:14:38;;;;;;;7.05;1.63;;;14.20;99.90;;;;;;4956286;28;20092;-93
2022/07/10 05:17:04;;;;;;;9.23;1.73;;;14.30;99.90;;;;;;5003412;28;20034;-93
2022/07/10 05:19:30;;;;;;;10.00;2.08;;;14.40;99.90;;;;;;5004169;28;20256;-93
2022/07/10 05:21:57;;;;;;;6.70;2.13;;;14.50;99.90;;;;;;5004977;28;20052;-94
2022/07/10 05:24:26;;;;;;;9.52;1.75;;;14.60;99.90;;;;;;5023311;28;20050;-93
2022/07/10 05:26:52;;;;;;;7.75;2.05;;;14.60;99.90;;;;;;4998367;28;20089;-94
2022/07/10 05:29:19;;;;;;;5.03;1.60;;;14.60;99.90;;;;;;4992033;28;20088;-92
2022/07/10 05:31:48;;;;;;;9.00;2.38;;;14.60;99.90;;;;;;4992331;28;20042;-93
2022/07/10 05:34:33;;;;;;;8.48;1.77;;;14.60;99.90;;;;;;5005802;28;20058;-92
2022/07/10 05:37:02;;;;;;;7.93;2.28;;;14.70;99.90;;;;;;5024137;28;20045;-92
2022/07/10 05:39:36;;;;;;;8.52;2.40;;;14.70;99.90;;;;;;4989783;28;20136;-93
2022/07/10 05:42:10;;;;;;;11.27;2.50;;;14.70;99.90;;;;;;4990219;28;20550;-92
2022/07/10 05:45:11;;;;;;;9.43;2.55;;;14.70;99.90;;;;;;4987290;28;20037;-93
2022/07/10 05:47:39;;;;;;;10.50;2.42;;;14.80;99.90;;;;;;5022247;28;20038;-91
2022/07/10 05:50:06;;;;;;;17.77;2.90;;;14.70;99.90;;;;;;4984334;28;20046;-91
2022/07/10 05:52:33;;;;;;;8.93;2.15;;;14.80;99.90;;;;;;4994738;28;20502;-93
2022/07/10 05:55:03;;;;;;;10.15;2.47;;;14.70;99.90;;;;;;4989036;28;20073;-88
2022/07/10 05:57:32;;;;;;;13.43;2.67;;;14.80;99.90;;;;;;5017020;28;20077;-89
2022/07/10 05:59:58;;;;;;;11.48;2.38;;;14.80;99.90;;;;;;4969547;28;20500;-89
2022/07/10 06:02:24;;;;;;;13.38;2.45;;;14.70;99.90;;;;;;5022769;28;20132;-89
2022/07/10 06:04:51;;;;;;;11.10;2.95;;;14.80;99.90;;;;;;4972243;28;20068;-88
2022/07/10 06:07:17;;;;;;;13.73;3.25;;;14.80;99.90;;;;;;4985277;28;20058;-89
2022/07/10 06:09:44;;;;;;;11.02;2.90;;;14.90;99.90;;;;;;4989799;28;20061;-88
2022/07/10 06:12:10;;;;;;;13.68;3.08;;;14.90;99.90;;;;;;5003232;28;20531;-89
2022/07/10 06:14:38;;;;;;;12.90;2.80;;;15.00;99.90;;;;;;5008792;28;20167;-88
2022/07/10 06:17:04;;;;;;;13.60;3.00;;;15.10;99.90;;;;;;5021854;28;20042;-88
2022/07/10 06:19:30;;;;;;;12.23;2.40;;;15.20;99.90;;;;;;4988007;28;20509;-88
2022/07/10 06:24:44;;;;;;;14.32;2.78;;;15.30;99.90;;;;;;5037476;28;20045;-89
2022/07/10 06:27:11;;;;;;;8.75;2.50;;;15.30;99.90;;;;;;4972754;28;20077;-88
2022/07/10 06:29:37;;;;;;;8.52;2.45;;;15.40;99.90;;;;;;5002654;28;20511;-89
2022/07/10 06:32:04;;;;;;;8.27;2.40;;;15.40;99.90;;;;;;4986581;28;20436;-89
2022/07/10 06:34:30;;;;;;;8.90;2.88;;;15.50;99.90;;;;;;5002056;28;20084;-88
2022/07/10 06:36:56;;;;;;;12.48;2.92;;;15.50;99.90;;;;;;4979514;28;20501;-89
2022/07/10 06:39:22;;;;;;;9.60;2.53;;;15.60;99.90;;;;;;4967525;28;20060;-88
2022/07/10 06:41:49;;;;;;;10.27;2.42;;;15.50;99.90;;;;;;5012476;28;20521;-88
2022/07/10 06:44:15;;;;;;;9.13;2.83;;;15.50;99.90;;;;;;4963509;28;20068;-88
2022/07/10 06:46:41;;;;;;;10.23;2.50;;;15.50;99.90;;;;;;4962545;28;20080;-88
2022/07/10 06:49:08;;;;;;;10.27;2.25;;;15.50;99.90;;;;;;4933965;28;20042;-88
2022/07/10 06:51:34;;;;;;;9.10;2.50;;;15.60;99.90;;;;;;4963181;28;20040;-89
2022/07/10 06:54:01;;;;;;;9.20;2.20;;;15.60;99.90;;;;;;4985739;28;20486;-89
2022/07/10 06:56:27;;;;;;;9.00;2.42;;;15.70;99.90;;;;;;4982405;28;20049;-86
2022/07/10 06:58:53;;;;;;;10.30;2.60;;;15.80;99.90;;;;;;5001372;28;20585;-86
2022/07/10 07:01:19;;;;;;;9.35;2.30;;;15.80;99.90;;;;;;4986645;28;20104;-87
2022/07/10 07:03:46;;;;;;;6.90;1.83;;;15.80;99.90;;;;;;4985757;28;20069;-87
2022/07/10 07:06:12;;;;;;;5.78;2.40;;;15.80;99.90;;;;;;4974263;28;20132;-87
2022/07/10 07:08:38;;;;;;;8.35;1.55;;;15.90;99.90;;;;;;4976941;28;20508;-87
2022/07/10 07:11:04;;;;;;;8.02;2.78;;;15.90;99.90;;;;;;5000592;28;20045;-87
2022/07/10 07:13:31;;;;;;;6.88;1.95;;;15.90;99.90;;;;;;4971360;28;20081;-87
2022/07/10 07:16:00;;;;;;;6.07;1.85;;;16.00;99.90;;;;;;4956331;28;20053;-87
2022/07/10 07:18:35;;;;;;;6.47;1.50;;;16.00;99.90;;;;;;4978107;28;20073;-86
2022/07/10 07:23:46;;;;;;;7.15;1.42;;;16.10;99.90;;;;;;5028703;28;20103;-86
2022/07/10 07:26:12;;;;;;;6.82;1.98;;;16.20;99.90;;;;;;5022017;28;20068;-86
2022/07/10 07:28:39;;;;;;;6.57;1.92;;;16.20;99.90;;;;;;4978606;28;20679;-86
2022/07/10 07:31:06;;;;;;;9.75;1.98;;;16.40;99.90;;;;;;5016521;28;20646;-86
2022/07/10 07:33:32;;;;;;;6.18;1.27;;;16.30;99.90;;;;;;4977509;28;20290;-86
2022/07/10 07:35:58;;;;;;;5.00;1.10;;;16.30;99.90;;;;;;4950388;28;20048;-86
2022/07/10 07:38:24;;;;;;;7.45;2.47;;;16.30;99.90;;;;;;5015794;28;20417;-87
2022/07/10 07:40:50;;;;;;;4.57;1.38;;;16.30;99.90;;;;;;4986834;28;20045;-87
2022/07/10 07:43:17;;;;;;;7.78;1.85;;;16.30;99.90;;;;;;4955978;28;20037;-86
2022/07/10 07:45:43;;;;;;;5.68;1.38;;;16.30;99.90;;;;;;5000106;28;20064;-87
2022/07/10 07:48:10;;;;;;;10.05;4.25;;;16.30;99.90;;;;;;4986964;28;20135;-88
2022/07/10 07:50:36;;;;;;;6.82;1.50;;;16.50;99.90;;;;;;4987586;28;20091;-86
2022/07/10 07:53:04;;;;;;;8.30;2.38;;;16.60;99.90;;;;;;4965921;28;20042;-87
2022/07/10 07:55:32;;;;;;;11.07;4.90;;;16.70;99.90;;;;;;5001902;28;20077;-87
2022/07/10 07:57:59;;;;;;;6.32;3.05;;;16.90;99.90;;;;;;5011166;28;20076;-87
2022/07/10 08:00:28;;;;;;;4.78;1.45;;;17.00;99.90;;;;;;4985231;28;20068;-87
2022/07/10 08:02:55;;;;;;;9.13;5.53;;;17.00;99.90;;;;;;5014885;28;20042;-87
2022/07/10 08:05:25;;;;;;;3.17;0.98;;;17.20;99.90;;;;;;4965385;28;20825;-87
2022/07/10 08:07:54;;;;;;;6.50;1.70;;;17.20;99.90;;;;;;4983226;28;20049;-87
2022/07/10 08:10:24;;;;;;;4.70;1.33;;;17.40;99.90;;;;;;5003250;28;20042;-87
2022/07/10 08:12:50;;;;;;;4.35;1.20;;;17.30;99.90;;;;;;5017809;28;20052;-87
2022/07/10 08:15:21;;;;;;;6.55;1.25;;;17.20;99.90;;;;;;4999813;28;20073;-86
2022/07/10 08:17:49;;;;;;;3.97;1.50;;;17.10;99.90;;;;;;4991208;28;20045;-87
2022/07/10 08:20:15;;;;;;;5.45;1.15;;;16.90;99.90;;;;;;4971961;28;20033;-87
2022/07/10 08:22:42;;;;;;;5.32;1.33;;;16.90;99.90;;;;;;5001167;28;20388;-87
2022/07/10 08:25:12;;;;;;;5.70;1.52;;;17.00;99.90;;;;;;4970325;28;20045;-86
2022/07/10 08:27:38;;;;;;;9.23;4.78;;;17.10;99.90;;;;;;4994168;28;20528;-86
2022/07/10 08:30:06;;;;;;;6.45;1.30;;;17.20;99.90;;;;;;4981949;28;20132;-88
2022/07/10 08:32:32;;;;;;;3.92;1.25;;;17.20;99.90;;;;;;4999767;28;20064;-87
2022/07/10 08:34:59;;;;;;;5.43;1.48;;;17.10;99.90;;;;;;4974452;28;20621;-86
2022/07/10 08:37:25;;;;;;;6.30;1.63;;;17.20;99.90;;;;;;4997626;28;20400;-87
2022/07/10 08:39:51;;;;;;;6.13;1.10;;;17.10;99.90;;;;;;4985619;28;20049;-87
2022/07/10 08:42:18;;;;;;;6.28;1.00;;;17.10;99.90;;;;;;4973560;28;20058;-87
2022/07/10 08:44:45;;;;;;;6.32;1.63;;;17.10;99.90;;;;;;4998042;28;20050;-87
2022/07/10 08:47:11;;;;;;;3.03;0.80;;;16.90;99.90;;;;;;4970867;28;20046;-87
2022/07/10 08:49:38;;;;;;;3.10;1.13;;;16.90;99.90;;;;;;4990472;28;20536;-87
2022/07/10 08:52:08;;;;;;;4.22;0.88;;;16.80;99.90;;;;;;4993024;28;20571;-87
2022/07/10 08:54:35;;;;;;;5.53;1.23;;;16.70;99.90;;;;;;5014888;28;20114;-87
2022/07/10 08:57:03;;;;;;;7.82;1.40;;;16.70;99.90;;;;;;4994745;28;20045;-87
2022/07/10 08:59:29;;;;;;;5.80;1.10;;;16.70;99.90;;;;;;5000528;28;20520;-87
2022/07/10 09:01:56;;;;;;;4.45;1.35;;;16.70;99.90;;;;;;4985515;28;20518;-87
2022/07/10 09:04:25;;;;;;;3.65;1.23;;;16.70;99.90;;;;;;5025934;28;20078;-87
2022/07/10 09:06:53;;;;;;;6.63;1.80;;;17.00;99.90;;;;;;5016751;28;20103;-87
2022/07/10 09:09:20;;;;;;;6.75;2.30;;;17.10;99.90;;;;;;5018808;28;20060;-87
2022/07/10 09:11:47;;;;;;;5.25;1.30;;;17.20;99.90;;;;;;4984417;28;20531;-87
2022/07/10 09:14:17;;;;;;;6.55;1.60;;;17.20;99.90;;;;;;5000568;28;20049;-87
2022/07/10 09:16:47;;;;;;;6.53;1.92;;;17.40;99.90;;;;;;4993199;28;20042;-88
2022/07/10 09:19:25;;;;;;;8.93;4.18;;;17.20;99.90;;;;;;4981191;28;20104;-89
2022/07/10 09:22:08;;;;;;;5.97;1.25;;;17.30;99.90;;;;;;5012307;28;20042;-86
2022/07/10 09:24:46;;;;;;;4.10;1.13;;;17.40;99.90;;;;;;4998241;28;20111;-87
2022/07/10 09:27:16;;;;;;;5.47;1.15;;;17.40;99.90;;;;;;4969508;28;20132;-87
2022/07/10 09:29:50;;;;;;;5.35;2.40;;;17.50;99.90;;;;;;5007499;28;20497;-87
2022/07/10 09:32:17;;;;;;;6.20;1.58;;;17.50;99.90;;;;;;5003618;28;20129;-87
2022/07/10 09:34:45;;;;;;;4.22;1.02;;;17.40;99.90;;;;;;4966680;28;20544;-86
2022/07/10 09:37:18;;;;;;;3.40;1.08;;;17.20;99.90;;;;;;4992134;28;20045;-87
2022/07/10 09:39:54;;;;;;;8.70;4.70;;;17.10;99.90;;;;;;5018614;28;20652;-87
2022/07/10 09:42:48;;;;;;;5.25;1.83;;;17.00;99.90;;;;;;5002328;28;20050;-87
2022/07/10 09:45:18;;;;;;;7.13;3.45;;;17.10;99.90;;;;;;4975892;28;20050;-87
2022/07/10 09:48:02;;;;;;;3.85;1.90;;;17.20;99.90;;;;;;5020486;28;20456;-87
2022/07/10 09:50:29;;;;;;;4.85;1.90;;;17.10;99.90;;;;;;4988889;28;20041;-86
2022/07/10 09:53:06;;;;;;;7.55;1.77;;;17.00;99.90;;;;;;5023905;28;20038;-87
2022/07/10 09:55:37;;;;;;;7.38;2.45;;;17.10;99.90;;;;;;5002470;28;20081;-87
2022/07/10 09:58:05;;;;;;;8.55;2.00;;;17.20;99.90;;;;;;4991577;28;20060;-87
2022/07/10 10:00:40;;;;;;;6.40;1.73;;;17.30;99.90;;;;;;5025663;28;20050;-87
2022/07/10 10:03:09;;;;;;;4.72;1.60;;;17.40;99.90;;;;;;5035806;28;20521;-87
2022/07/10 10:05:38;;;;;;;11.18;9.20;;;17.40;99.90;;;;;;5018138;28;20089;-86
2022/07/10 10:08:27;;;;;;;7.60;1.63;;;17.60;99.90;;;;;;4986884;28;20053;-88
2022/07/10 10:10:57;;;;;;;4.85;1.60;;;17.50;99.90;;;;;;5001124;28;20077;-87
2022/07/10 10:13:28;;;;;;;5.10;1.65;;;17.70;99.90;;;;;;4997744;28;20034;-88
2022/07/10 10:15:56;;;;;;;7.88;4.32;;;17.60;99.90;;;;;;5003111;28;20042;-88
2022/07/10 10:18:26;;;;;;;6.57;2.33;;;17.50;99.90;;;;;;4997152;28;20054;-87
2022/07/10 10:20:54;;;;;;;4.13;1.98;;;17.40;99.90;;;;;;5002274;28;20141;-87
2022/07/10 10:23:25;;;;;;;5.90;1.95;;;17.20;99.90;;;;;;4984759;28;20054;-87
2022/07/10 10:25:55;;;;;;;5.55;2.00;;;17.10;99.90;;;;;;4969579;28;20046;-88
2022/07/10 10:28:23;;;;;;;4.88;2.15;;;17.10;99.90;;;;;;5001462;28;20088;-88
2022/07/10 10:30:55;;;;;;;6.20;1.75;;;17.20;99.90;;;;;;5016263;28;20046;-87
2022/07/10 10:33:43;;;;;;;7.63;4.15;;;17.40;99.90;;;;;;5008058;28;20095;-87
2022/07/10 10:36:12;;;;;;;7.72;2.50;;;17.60;99.90;;;;;;5014157;28;20102;-88
2022/07/10 10:38:55;;;;;;;8.80;4.28;;;17.80;99.90;;;;;;4999574;28;20486;-88
2022/07/10 10:41:48;;;;;;;5.78;2.25;;;18.10;99.90;;;;;;5000882;28;20477;-87
2022/07/10 10:44:17;;;;;;;8.60;3.53;;;18.20;99.90;;;;;;4985849;28;20073;-87
2022/07/10 10:47:05;;;;;;;9.07;4.53;;;18.10;99.90;;;;;;4986361;28;20077;-86
2022/07/10 10:49:49;;;;;;;7.32;2.90;;;17.80;99.90;;;;;;4988244;28;20057;-87
2022/07/10 10:52:16;;;;;;;8.75;2.83;;;17.60;99.90;;;;;;5003218;28;20042;-88
2022/07/10 10:54:59;;;;;;;9.65;4.90;;;17.60;99.90;;;;;;4997602;28;20042;-89
2022/07/10 10:57:32;;;;;;;7.80;2.22;;;17.90;99.90;;;;;;5001459;28;20045;-89
2022/07/10 11:00:00;;;;;;;7.57;2.30;;;18.10;99.90;;;;;;5018320;28;20401;-89
2022/07/10 11:02:26;;;;;;;11.10;4.35;;;18.20;99.90;;;;;;5000779;28;20184;-88
2022/07/10 11:05:14;;;;;;;34.60;30.85;;;18.70;99.90;;;;;;5001487;28;20056;-88
2022/07/10 11:07:58;;;;;;;9.77;5.38;;;18.90;99.90;;;;;;4984778;28;20053;-88
2022/07/10 11:10:38;;;;;;;4.20;1.77;;;19.20;99.90;;;;;;4983300;28;20092;-89
2022/07/10 11:13:05;;;;;;;10.80;6.38;;;19.60;99.90;;;;;;5016762;28;20034;-89
2022/07/10 11:15:32;;;;;;;7.53;2.95;;;19.90;99.90;;;;;;5000229;28;20049;-88
2022/07/10 11:18:03;;;;;;;11.23;7.07;;;20.30;99.90;;;;;;4952273;28;20765;-88
2022/07/10 11:20:33;;;;;;;5.70;2.03;;;20.50;99.90;;;;;;5017805;28;20049;-87
2022/07/10 11:23:18;;;;;;;7.93;4.32;;;20.50;99.90;;;;;;5033852;28;20432;-88
2022/07/10 11:26:01;;;;;;;6.55;1.90;;;20.60;99.90;;;;;;5016811;28;20604;-87
2022/07/10 11:28:53;;;;;;;6.00;3.10;;;20.50;99.90;;;;;;4986026;28;20045;-89
2022/07/10 11:31:21;;;;;;;5.38;2.45;;;20.30;99.90;;;;;;4966428;28;20571;-89
2022/07/10 11:33:52;;;;;;;6.60;2.25;;;20.10;99.90;;;;;;4983899;28;20143;-87
2022/07/10 11:36:26;;;;;;;3.42;1.40;;;19.60;99.90;;;;;;4997026;28;20066;-87
2022/07/10 11:39:06;;;;;;;6.20;1.67;;;19.50;99.90;;;;;;5015805;28;20054;-87
2022/07/10 11:41:33;;;;;;;5.03;1.40;;;19.30;99.90;;;;;;4980948;28;20116;-87
2022/07/10 11:44:01;;;;;;;4.60;1.35;;;19.60;99.90;;;;;;4981081;28;20057;-86
2022/07/10 11:46:33;;;;;;;4.55;1.60;;;20.10;99.90;;;;;;5013592;28;20589;-88
2022/07/10 11:49:05;;;;;;;13.50;9.15;;;20.40;99.90;;;;;;4997922;28;20041;-88
2022/07/10 11:51:39;;;;;;;5.57;1.63;;;20.80;99.90;;;;;;4998858;28;20057;-89
2022/07/10 11:54:18;;;;;;;5.20;3.58;;;20.50;99.90;;;;;;4972548;28;20501;-87
2022/07/10 11:56:52;;;;;;;5.63;1.63;;;20.10;99.90;;;;;;4992006;28;20436;-88
2022/07/10 11:59:23;;;;;;;5.25;1.85;;;19.70;99.90;;;;;;5001522;28;20076;-87
2022/07/10 12:01:52;;;;;;;6.15;3.45;;;19.30;99.90;;;;;;5010588;28;20100;-87
2022/07/10 12:04:23;;;;;;;7.32;1.92;;;19.10;99.90;;;;;;4999609;28;20042;-88
2022/07/10 12:06:51;;;;;;;5.93;1.58;;;19.00;99.90;;;;;;5018159;28;20053;-87
2022/07/10 12:09:20;;;;;;;9.60;2.30;;;19.00;99.90;;;;;;4999333;28;20443;-88
2022/07/10 12:12:01;;;;;;;4.45;1.52;;;19.00;99.90;;;;;;5016765;28;20439;-88
2022/07/10 12:14:27;;;;;;;7.88;4.35;;;18.90;99.90;;;;;;4998461;28;20425;-87
2022/07/10 12:16:55;;;;;;;5.03;1.77;;;19.00;99.90;;;;;;5018818;28;20038;-88
2022/07/10 12:19:27;;;;;;;9.80;4.50;;;18.90;99.90;;;;;;5000656;28;20065;-87
2022/07/10 12:21:54;;;;;;;6.22;3.33;;;18.90;99.90;;;;;;4985166;28;20060;-87
2022/07/10 12:24:20;;;;;;;7.95;3.17;;;18.80;99.90;;;;;;4982380;28;20324;-87
2022/07/10 12:26:47;;;;;;;5.65;1.92;;;18.70;99.90;;;;;;4985503;28;20042;-88
2022/07/10 12:29:25;;;;;;;9.25;1.85;;;18.50;99.90;;;;;;5002524;28;20589;-88
2022/07/10 12:31:57;;;;;;;17.83;14.43;;;18.40;99.90;;;;;;4983672;28;20042;-87
2022/07/10 12:34:42;;;;;;;9.45;2.13;;;18.30;99.90;;;;;;4981912;28;20147;-87
2022/07/10 12:37:13;;;;;;;6.57;2.70;;;17.90;99.90;;;;;;4998399;28;20046;-88
2022/07/10 12:39:53;;;;;;;6.57;2.13;;;17.90;99.90;;;;;;4997909;28;20913;-88
2022/07/10 12:42:30;;;;;;;12.68;6.53;;;17.90;99.90;;;;;;4998868;28;20073;-88
2022/07/10 12:45:10;;;;;;;7.35;2.03;;;18.00;99.90;;;;;;4964716;28;20159;-88
2022/07/10 12:47:45;;;;;;;8.57;2.42;;;18.20;99.90;;;;;;5017785;28;20050;-88
2022/07/10 12:50:13;;;;;;;11.55;8.02;;;18.20;99.90;;;;;;4996243;28;20129;-87
2022/07/10 12:52:39;;;;;;;4.88;2.08;;;18.30;99.90;;;;;;4984702;28;20056;-88
2022/07/10 12:55:15;;;;;;;10.18;2.60;;;18.30;99.90;;;;;;5016910;28;20530;-87
2022/07/10 12:57:53;;;;;;;6.10;2.10;;;18.30;99.90;;;;;;4997930;28;20041;-87
2022/07/10 13:00:24;;;;;;;7.38;3.67;;;18.40;99.90;;;;;;4996631;28;20138;-86
2022/07/10 13:03:04;;;;;;;4.43;1.80;;;18.60;99.90;;;;;;4998752;28;20907;-86
2022/07/10 13:05:39;;;;;;;5.00;1.77;;;18.60;99.90;;;;;;5009031;28;20050;-86
2022/07/10 13:08:22;;;;;;;3.90;2.08;;;18.70;99.90;;;;;;5003638;28;20129;-87
2022/07/10 13:10:56;;;;;;;12.93;8.88;;;18.60;99.90;;;;;;5003213;28;20054;-86
2022/07/10 13:13:26;;;;;;;8.63;5.32;;;18.80;99.90;;;;;;4986943;28;20456;-87
2022/07/10 13:15:54;;;;;;;7.40;3.38;;;19.00;99.90;;;;;;5008671;28;20602;-87
2022/07/10 13:18:24;;;;;;;5.97;1.52;;;19.10;99.90;;;;;;5012769;28;20415;-87
2022/07/10 13:20:52;;;;;;;4.90;1.80;;;19.30;99.90;;;;;;5025421;28;20552;-86
2022/07/10 13:23:21;;;;;;;4.72;1.42;;;19.50;99.90;;;;;;4993974;28;20097;-88
2022/07/10 13:25:49;;;;;;;6.00;1.73;;;19.40;99.90;;;;;;4992689;28;20042;-87